createdAt,value
2022-09-16T00:01:01.013Z,14.22
2022-09-16T00:03:28.900Z,14.46
2022-09-16T00:05:56.809Z,14.42
2022-09-16T00:08:24.603Z,14.46
2022-09-16T00:10:52.734Z,14.35
2022-09-16T00:13:21.774Z,14.25
2022-09-16T00:15:51.907Z,14.36
2022-09-16T00:18:20.410Z,14.37
2022-09-16T00:20:50.172Z,14.36
2022-09-16T00:23:18.654Z,14.29
2022-09-16T00:25:46.351Z,14.27
2022-09-16T00:28:14.107Z,14.43
2022-09-16T00:30:43.166Z,14.24
2022-09-16T00:33:11.371Z,14.58
2022-09-16T00:35:39.064Z,14.02
2022-09-16T00:38:07.494Z,14.27
2022-09-16T00:40:35.490Z,14.11
2022-09-16T00:43:03.213Z,13.58
2022-09-16T00:45:32.018Z,13.62
2022-09-16T00:48:04.680Z,13.84
2022-09-16T00:50:38.953Z,13.85
2022-09-16T00:53:08.545Z,13.59
2022-09-16T00:55:39.387Z,13.59
2022-09-16T00:58:15.244Z,13.47
2022-09-16T01:00:43.970Z,13.44
2022-09-16T01:03:13.117Z,13.39
2022-09-16T01:05:41.419Z,13.31
2022-09-16T01:08:09.102Z,13.04
2022-09-16T01:10:37.023Z,13.28
2022-09-16T01:13:08.523Z,13.27
2022-09-16T01:15:45.049Z,13.21
2022-09-16T01:18:24.212Z,13.05
2022-09-16T01:21:31.378Z,13.22
2022-09-16T01:24:49.711Z,13.20
2022-09-16T01:28:04.418Z,12.97
2022-09-16T01:33:34.969Z,12.81
2022-09-16T01:36:21.436Z,12.86
2022-09-16T01:39:08.954Z,13.06
2022-09-16T01:41:46.206Z,13.01
2022-09-16T01:44:22.142Z,12.77
2022-09-16T01:46:55.611Z,12.88
2022-09-16T01:49:37.446Z,12.93
2022-09-16T01:52:16.101Z,12.78
2022-09-16T01:54:49.168Z,12.89
2022-09-16T01:57:21.119Z,12.90
2022-09-16T01:59:55.247Z,13.30
2022-09-16T02:02:28.297Z,13.02
2022-09-16T02:05:00.970Z,12.95
2022-09-16T02:07:32.935Z,12.86
2022-09-16T02:10:11.294Z,12.56
2022-09-16T02:12:44.164Z,12.95
2022-09-16T02:15:18.782Z,12.79
2022-09-16T02:17:52.047Z,12.74
2022-09-16T02:20:25.855Z,12.73
2022-09-16T02:22:59.502Z,12.86
2022-09-16T02:25:28.645Z,12.79
2022-09-16T02:27:58.693Z,12.83
2022-09-16T02:30:26.510Z,13.02
2022-09-16T02:32:58.003Z,12.91
2022-09-16T02:35:29.341Z,12.55
2022-09-16T02:38:00.309Z,12.74
2022-09-16T02:40:33.454Z,12.59
2022-09-16T02:43:01.810Z,12.49
2022-09-16T02:45:43.778Z,12.64
2022-09-16T02:48:16.195Z,12.59
2022-09-16T02:50:53.066Z,12.93
2022-09-16T02:53:28.772Z,13.00
2022-09-16T02:56:02.028Z,12.65
2022-09-16T02:58:30.828Z,12.77
2022-09-16T03:00:59.390Z,12.80
2022-09-16T03:03:27.256Z,12.82
2022-09-16T03:06:16.295Z,12.68
2022-09-16T03:08:45.338Z,12.86
2022-09-16T03:11:29.379Z,12.83
2022-09-16T03:14:13.469Z,12.94
2022-09-16T03:16:52.386Z,12.74
2022-09-16T03:19:27.016Z,12.46
2022-09-16T03:22:04.400Z,12.79
2022-09-16T03:24:44.011Z,12.43
2022-09-16T03:27:17.298Z,12.63
2022-09-16T03:29:50.637Z,12.79
2022-09-16T03:32:22.940Z,12.48
2022-09-16T03:34:54.238Z,12.61
2022-09-16T03:37:27.994Z,12.63
2022-09-16T03:39:58.820Z,12.45
2022-09-16T03:42:26.901Z,12.33
2022-09-16T03:44:54.592Z,12.49
2022-09-16T03:47:22.328Z,12.39
2022-09-16T03:49:50.819Z,12.54
2022-09-16T03:52:19.126Z,12.76
2022-09-16T03:54:48.168Z,12.48
2022-09-16T03:57:15.856Z,12.51
2022-09-16T03:59:43.550Z,12.51
2022-09-16T04:02:11.313Z,12.46
2022-09-16T04:04:39.233Z,12.43
2022-09-16T04:07:06.936Z,12.86
2022-09-16T04:09:34.635Z,12.42
2022-09-16T04:12:05.505Z,12.49
2022-09-16T04:14:33.172Z,12.72
2022-09-16T04:17:01.252Z,12.68
2022-09-16T04:19:29.133Z,12.65
2022-09-16T04:21:56.813Z,12.51
2022-09-16T04:24:24.480Z,12.32
2022-09-16T04:26:52.218Z,12.66
2022-09-16T04:29:21.283Z,12.74
2022-09-16T04:31:48.962Z,12.50
2022-09-16T04:34:16.690Z,12.67
2022-09-16T04:36:44.394Z,12.56
2022-09-16T04:39:12.255Z,12.54
2022-09-16T04:41:40.356Z,12.52
2022-09-16T04:44:08.111Z,12.66
2022-09-16T04:46:37.224Z,12.50
2022-09-16T04:49:05.262Z,12.64
2022-09-16T04:51:33.197Z,12.50
2022-09-16T04:54:01.841Z,12.69
2022-09-16T04:56:31.490Z,12.66
2022-09-16T04:59:02.219Z,12.60
2022-09-16T05:01:32.405Z,12.75
2022-09-16T05:04:03.255Z,12.55
2022-09-16T05:06:33.282Z,12.54
2022-09-16T05:09:01.877Z,12.78
2022-09-16T05:11:31.640Z,12.65
2022-09-16T05:14:00.796Z,12.63
2022-09-16T05:16:28.961Z,12.75
2022-09-16T05:18:58.398Z,12.66
2022-09-16T05:21:29.092Z,12.80
2022-09-16T05:24:01.364Z,12.68
2022-09-16T05:26:31.498Z,12.62
2022-09-16T05:29:02.357Z,12.73
2022-09-16T05:31:31.972Z,12.74
2022-09-16T05:34:01.759Z,12.75
2022-09-16T05:36:32.701Z,12.94
2022-09-16T05:41:48.723Z,12.87
2022-09-16T05:44:16.696Z,12.71
2022-09-16T05:46:44.560Z,12.92
2022-09-16T05:49:12.796Z,12.84
2022-09-16T05:51:42.447Z,13.17
2022-09-16T05:54:10.567Z,12.85
2022-09-16T05:56:38.281Z,13.04
2022-09-16T05:59:06.799Z,13.13
2022-09-16T06:01:37.184Z,13.06
2022-09-16T06:04:07.181Z,13.05
2022-09-16T06:06:36.348Z,13.40
2022-09-16T06:09:08.940Z,13.33
2022-09-16T06:11:38.348Z,13.22
2022-09-16T06:14:07.050Z,13.25
2022-09-16T06:16:35.483Z,13.28
2022-09-16T06:19:05.482Z,13.31
2022-09-16T06:21:33.215Z,13.42
2022-09-16T06:24:00.963Z,13.20
2022-09-16T06:26:30.044Z,13.37
2022-09-16T06:28:58.100Z,13.40
2022-09-16T06:31:28.322Z,13.75
2022-09-16T06:33:57.024Z,13.47
2022-09-16T06:36:27.254Z,13.70
2022-09-16T06:38:54.974Z,13.99
2022-09-16T06:41:23.484Z,13.46
2022-09-16T06:43:53.262Z,13.55
2022-09-16T06:46:22.980Z,13.71
2022-09-16T06:48:52.263Z,13.85
2022-09-16T06:51:22.827Z,13.62
2022-09-16T06:53:51.570Z,13.96
2022-09-16T06:56:22.017Z,13.62
2022-09-16T06:58:53.058Z,13.70
2022-09-16T07:01:22.256Z,13.60
2022-09-16T07:03:51.944Z,14.48
2022-09-16T07:06:21.209Z,14.06
2022-09-16T07:08:49.217Z,14.56
2022-09-16T07:11:18.604Z,14.28
2022-09-16T07:13:48.086Z,14.38
2022-09-16T07:16:19.942Z,14.14
2022-09-16T07:18:48.355Z,14.38
2022-09-16T07:21:18.516Z,14.52
2022-09-16T07:23:47.395Z,14.59
2022-09-16T07:26:17.212Z,14.92
2022-09-16T07:28:47.315Z,14.73
2022-09-16T07:31:18.365Z,14.58
2022-09-16T07:33:48.549Z,14.57
2022-09-16T07:36:18.392Z,14.59
2022-09-16T07:38:46.433Z,14.66
2022-09-16T07:41:16.123Z,14.85
2022-09-16T07:43:44.606Z,15.23
2022-09-16T07:46:16.661Z,15.10
2022-09-16T07:48:47.158Z,14.98
2022-09-16T07:51:17.543Z,15.33
2022-09-16T07:53:46.079Z,15.13
2022-09-16T07:56:15.734Z,15.74
2022-09-16T07:58:44.892Z,15.81
2022-09-16T08:01:13.635Z,15.63
2022-09-16T08:03:41.821Z,15.67
2022-09-16T08:06:14.224Z,16.58
2022-09-16T08:08:42.352Z,16.48
2022-09-16T08:11:10.382Z,16.37
2022-09-16T08:13:38.503Z,16.20
2022-09-16T08:16:09.282Z,15.90
2022-09-16T08:18:37.070Z,15.83
2022-09-16T08:21:08.094Z,15.87
2022-09-16T08:23:38.406Z,16.12
2022-09-16T08:26:08.394Z,16.47
2022-09-16T08:28:45.438Z,15.98
2022-09-16T08:31:25.368Z,16.03
2022-09-16T08:33:53.150Z,16.07
2022-09-16T08:36:22.781Z,15.95
2022-09-16T08:38:53.515Z,16.11
2022-09-16T08:41:32.982Z,16.31
2022-09-16T08:44:13.157Z,16.33
2022-09-16T08:46:48.399Z,16.41
2022-09-16T08:49:22.640Z,16.00
2022-09-16T08:51:50.841Z,16.82
2022-09-16T08:54:29.463Z,16.95
2022-09-16T08:57:01.704Z,17.13
2022-09-16T08:59:35.521Z,16.71
2022-09-16T09:02:22.866Z,16.68
2022-09-16T09:04:51.104Z,17.56
2022-09-16T09:07:27.850Z,17.60
2022-09-16T09:10:19.267Z,17.14
2022-09-16T09:12:53.361Z,17.41
2022-09-16T09:15:35.276Z,17.31
2022-09-16T09:18:18.687Z,17.31
2022-09-16T09:21:05.060Z,17.08
2022-09-16T09:23:51.149Z,16.85
2022-09-16T09:26:23.078Z,17.61
2022-09-16T09:29:05.153Z,17.46
2022-09-16T09:31:44.886Z,17.23
2022-09-16T09:34:25.634Z,17.22
2022-09-16T09:37:06.705Z,16.83
2022-09-16T09:39:48.729Z,17.19
2022-09-16T09:42:24.836Z,16.81
2022-09-16T09:45:01.481Z,17.54
2022-09-16T09:47:35.104Z,17.09
2022-09-16T09:50:14.123Z,17.07
2022-09-16T09:52:46.818Z,17.05
2022-09-16T09:55:18.203Z,17.36
2022-09-16T09:58:03.572Z,17.18
2022-09-16T10:00:31.220Z,17.23
2022-09-16T10:03:05.556Z,17.32
2022-09-16T10:05:33.467Z,17.64
2022-09-16T10:08:05.914Z,17.76
2022-09-16T10:10:35.963Z,17.62
2022-09-16T10:13:13.018Z,17.84
2022-09-16T10:15:41.538Z,17.40
2022-09-16T10:18:14.322Z,18.30
2022-09-16T10:20:45.465Z,18.33
2022-09-16T10:23:15.274Z,19.34
2022-09-16T10:25:44.461Z,18.56
2022-09-16T10:28:24.901Z,17.94
2022-09-16T10:30:54.727Z,17.87
2022-09-16T10:33:26.283Z,18.21
2022-09-16T10:35:57.984Z,19.63
2022-09-16T10:38:34.977Z,19.06
2022-09-16T10:41:08.311Z,19.89
2022-09-16T10:43:40.467Z,20.95
2022-09-16T10:46:09.056Z,21.70
2022-09-16T10:48:37.668Z,19.61
2022-09-16T10:51:07.278Z,19.28
2022-09-16T10:53:39.272Z,19.37
2022-09-16T10:56:18.598Z,19.20
2022-09-16T10:58:47.881Z,19.80
2022-09-16T11:01:32.258Z,18.72
2022-09-16T11:04:24.834Z,18.31
2022-09-16T11:07:03.132Z,17.76
2022-09-16T11:09:36.152Z,17.49
2022-09-16T11:12:24.423Z,17.75
2022-09-16T11:15:02.514Z,17.63
2022-09-16T11:17:46.417Z,18.57
2022-09-16T11:20:45.420Z,18.99
2022-09-16T11:23:26.670Z,20.03
2022-09-16T11:26:00.650Z,19.42
2022-09-16T11:29:07.385Z,19.44
2022-09-16T11:31:44.703Z,20.21
2022-09-16T11:34:24.467Z,19.29
2022-09-16T11:37:02.304Z,19.57
2022-09-16T11:39:45.789Z,18.46
2022-09-16T11:42:20.587Z,18.60
2022-09-16T11:44:54.141Z,18.28
2022-09-16T11:47:46.243Z,17.97
2022-09-16T11:50:30.600Z,17.34
2022-09-16T11:53:25.879Z,17.37
2022-09-16T11:56:00.005Z,17.86
2022-09-16T11:58:36.364Z,18.10
2022-09-16T12:01:11.521Z,18.28
2022-09-16T12:03:46.931Z,19.03
2022-09-16T12:06:18.680Z,18.72
2022-09-16T12:08:55.741Z,18.77
2022-09-16T12:11:32.881Z,18.54
2022-09-16T12:14:09.386Z,18.07
2022-09-16T12:16:42.915Z,17.31
2022-09-16T12:19:19.394Z,17.16
2022-09-16T12:21:57.641Z,17.48
2022-09-16T12:24:32.018Z,17.96
2022-09-16T12:27:05.925Z,17.58
2022-09-16T12:29:42.091Z,17.79
2022-09-16T12:32:15.293Z,17.54
2022-09-16T12:34:50.323Z,17.47
2022-09-16T12:37:30.931Z,18.44
2022-09-16T12:39:58.720Z,18.60
2022-09-16T12:42:54.837Z,19.82
2022-09-16T12:45:54.934Z,19.01
2022-09-16T12:48:40.906Z,19.23
2022-09-16T12:51:26.580Z,18.75
2022-09-16T12:54:13.513Z,18.83
2022-09-16T12:57:08.307Z,18.62
2022-09-16T12:59:57.553Z,18.38
2022-09-16T13:02:31.529Z,19.71
2022-09-16T13:05:15.426Z,19.41
2022-09-16T13:07:48.927Z,20.29
2022-09-16T13:10:26.407Z,19.36
2022-09-16T13:13:05.401Z,19.25
2022-09-16T13:15:35.242Z,20.39
2022-09-16T13:18:11.470Z,20.43
2022-09-16T13:20:42.805Z,21.07
2022-09-16T13:23:19.175Z,20.01
2022-09-16T13:25:51.537Z,20.67
2022-09-16T13:28:36.125Z,19.14
2022-09-16T13:31:18.822Z,19.19
2022-09-16T13:33:48.151Z,18.59
2022-09-16T13:36:30.871Z,20.55
2022-09-16T13:39:01.961Z,20.91
2022-09-16T13:41:32.751Z,21.65
2022-09-16T13:44:00.932Z,20.00
2022-09-16T13:46:34.711Z,21.13
2022-09-16T13:49:22.006Z,21.65
2022-09-16T13:51:51.587Z,21.05
2022-09-16T13:54:26.691Z,20.71
2022-09-16T13:57:12.637Z,20.99
2022-09-16T14:02:40.412Z,21.79
2022-09-16T14:05:33.591Z,20.86
2022-09-16T14:08:11.975Z,19.42
2022-09-16T14:10:50.806Z,18.71
2022-09-16T14:13:22.288Z,19.04
2022-09-16T14:15:53.245Z,18.60
2022-09-16T14:18:25.404Z,18.65
2022-09-16T14:21:01.192Z,18.57
2022-09-16T14:23:31.366Z,18.43
2022-09-16T14:26:11.570Z,19.94
2022-09-16T14:28:39.562Z,19.44
2022-09-16T14:31:09.904Z,18.58
2022-09-16T14:33:45.063Z,19.55
2022-09-16T14:36:16.137Z,20.27
2022-09-16T14:38:50.574Z,20.23
2022-09-16T14:41:27.438Z,20.85
2022-09-16T14:43:57.442Z,19.41
2022-09-16T14:46:25.376Z,18.89
2022-09-16T14:48:53.128Z,18.63
2022-09-16T14:51:24.388Z,18.60
2022-09-16T14:54:11.596Z,20.31
2022-09-16T14:56:41.626Z,20.48
2022-09-16T14:59:12.537Z,21.08
2022-09-16T15:01:41.487Z,20.88
2022-09-16T15:04:16.386Z,21.09
2022-09-16T15:06:48.623Z,21.67
2022-09-16T15:09:20.822Z,20.91
2022-09-16T15:11:54.332Z,19.39
2022-09-16T15:14:22.722Z,20.19
2022-09-16T15:16:54.071Z,20.67
2022-09-16T15:19:24.960Z,21.81
2022-09-16T15:21:53.741Z,21.15
2022-09-16T15:24:24.860Z,19.57
2022-09-16T15:26:54.540Z,17.99
2022-09-16T15:29:32.005Z,17.91
2022-09-16T15:32:19.463Z,17.68
2022-09-16T15:34:47.821Z,18.09
2022-09-16T15:37:30.926Z,18.16
2022-09-16T15:40:09.836Z,17.92
2022-09-16T15:42:39.098Z,17.73
2022-09-16T15:45:18.332Z,17.11
2022-09-16T15:47:57.865Z,17.40
2022-09-16T15:50:26.950Z,17.41
2022-09-16T15:53:00.335Z,17.74
2022-09-16T15:55:33.612Z,16.85
2022-09-16T15:58:07.133Z,16.83
2022-09-16T16:01:00.604Z,16.79
2022-09-16T16:03:32.758Z,16.95
2022-09-16T16:06:00.563Z,16.92
2022-09-16T16:08:45.285Z,16.68
2022-09-16T16:11:15.062Z,16.86
2022-09-16T16:13:44.305Z,16.85
2022-09-16T16:16:14.336Z,16.79
2022-09-16T16:18:43.760Z,16.49
2022-09-16T16:21:15.007Z,15.91
2022-09-16T16:23:43.678Z,15.98
2022-09-16T16:26:12.639Z,16.15
2022-09-16T16:28:40.322Z,16.39
2022-09-16T16:31:17.366Z,16.28
2022-09-16T16:33:47.624Z,16.02
2022-09-16T16:36:17.764Z,16.09
2022-09-16T16:38:46.452Z,16.09
2022-09-16T16:41:14.369Z,16.22
2022-09-16T16:43:42.142Z,16.34
2022-09-16T16:46:09.912Z,16.33
2022-09-16T16:48:39.590Z,16.00
2022-09-16T16:51:11.248Z,16.25
2022-09-16T16:53:39.920Z,16.63
2022-09-16T16:56:14.461Z,16.89
2022-09-16T16:58:43.886Z,16.57
2022-09-16T17:01:13.895Z,16.52
2022-09-16T17:03:44.881Z,16.27
2022-09-16T17:06:13.182Z,16.29
2022-09-16T17:08:40.883Z,15.78
2022-09-16T17:11:10.223Z,15.78
2022-09-16T17:13:38.343Z,15.48
2022-09-16T17:16:06.949Z,15.30
2022-09-16T17:18:36.119Z,15.33
2022-09-16T17:21:06.855Z,15.27
2022-09-16T17:23:35.068Z,15.35
2022-09-16T17:26:03.262Z,15.05
2022-09-16T17:28:31.029Z,14.64
2022-09-16T17:30:59.056Z,14.54
2022-09-16T17:33:27.133Z,14.35
2022-09-16T17:36:01.751Z,14.17
2022-09-16T17:38:31.369Z,14.13
2022-09-16T17:41:03.716Z,13.67
2022-09-16T17:43:32.642Z,13.62
2022-09-16T17:46:01.027Z,13.44
2022-09-16T17:48:29.366Z,13.43
2022-09-16T17:50:57.746Z,13.35
2022-09-16T17:53:25.988Z,13.37
2022-09-16T17:56:03.710Z,13.37
2022-09-16T17:58:32.256Z,13.43
2022-09-16T18:01:08.574Z,13.42
2022-09-16T18:03:36.889Z,13.31
2022-09-16T18:06:11.635Z,13.49
2022-09-16T18:08:39.827Z,13.53
2022-09-16T18:11:10.352Z,13.79
2022-09-16T18:13:38.533Z,13.97
2022-09-16T18:16:08.111Z,14.11
2022-09-16T18:18:36.673Z,14.24
2022-09-16T18:21:06.066Z,14.08
2022-09-16T18:23:34.126Z,14.25
2022-09-16T18:26:04.818Z,13.99
2022-09-16T18:28:51.679Z,13.92
2022-09-16T18:31:24.435Z,14.00
2022-09-16T18:33:53.061Z,13.75
2022-09-16T18:36:22.563Z,13.69
2022-09-16T18:38:52.206Z,13.53
2022-09-16T18:41:21.408Z,13.32
2022-09-16T18:43:55.557Z,13.28
2022-09-16T18:46:26.771Z,13.45
2022-09-16T18:48:55.318Z,13.19
2022-09-16T18:51:25.624Z,13.63
2022-09-16T18:53:55.597Z,13.48
2022-09-16T18:56:24.768Z,13.29
2022-09-16T18:59:20.047Z,13.31
2022-09-16T19:01:43.894Z,13.29
2022-09-16T19:04:13.178Z,13.06
2022-09-16T19:06:43.792Z,13.17
2022-09-16T19:09:13.152Z,13.08
2022-09-16T19:11:41.624Z,13.24
2022-09-16T19:14:14.069Z,13.20
2022-09-16T19:16:42.997Z,13.01
2022-09-16T19:19:13.413Z,12.76
2022-09-16T19:21:42.043Z,12.84
2022-09-16T19:24:14.001Z,13.02
2022-09-16T19:26:43.574Z,13.00
2022-09-16T19:29:14.206Z,12.89
2022-09-16T19:31:43.782Z,12.75
2022-09-16T19:34:13.045Z,12.91
2022-09-16T19:36:41.337Z,12.75
2022-09-16T19:39:10.381Z,12.94
2022-09-16T19:41:43.026Z,12.98
2022-09-16T19:44:14.969Z,12.84
2022-09-16T19:46:44.757Z,12.85
2022-09-16T19:49:16.855Z,12.78
2022-09-16T19:51:45.285Z,12.85
2022-09-16T19:54:13.179Z,12.88
2022-09-16T19:56:41.056Z,12.85
2022-09-16T19:59:09.319Z,12.84
2022-09-16T20:01:38.530Z,12.89
2022-09-16T20:04:08.510Z,12.89
2022-09-16T20:06:38.806Z,12.91
2022-09-16T20:09:11.520Z,12.83
2022-09-16T20:11:40.639Z,12.93
2022-09-16T20:14:17.696Z,12.94
2022-09-16T20:16:47.903Z,12.76
2022-09-16T20:19:16.855Z,12.88
2022-09-16T20:21:45.102Z,12.71
2022-09-16T20:24:18.297Z,12.84
2022-09-16T20:26:46.400Z,12.76
2022-09-16T20:29:14.283Z,12.92
2022-09-16T20:31:42.145Z,12.91
2022-09-16T20:34:13.719Z,12.77
2022-09-16T20:36:41.522Z,12.75
2022-09-16T20:39:10.496Z,12.71
2022-09-16T20:41:39.748Z,12.84
2022-09-16T20:44:07.506Z,12.53
2022-09-16T20:46:36.689Z,12.76
2022-09-16T20:49:06.530Z,12.66
2022-09-16T20:51:36.005Z,12.70
2022-09-16T20:54:07.743Z,12.58
2022-09-16T20:56:39.094Z,12.65
2022-09-16T20:59:08.229Z,12.60
2022-09-16T21:01:37.751Z,12.54
2022-09-16T21:04:07.264Z,12.80
2022-09-16T21:06:37.494Z,12.48
2022-09-16T21:09:07.544Z,12.56
2022-09-16T21:11:35.905Z,12.87
2022-09-16T21:14:06.388Z,12.68
2022-09-16T21:16:36.806Z,12.55
2022-09-16T21:19:09.301Z,12.41
2022-09-16T21:21:40.539Z,12.30
2022-09-16T21:24:09.770Z,12.46
2022-09-16T21:26:38.986Z,12.21
2022-09-16T21:29:10.863Z,12.12
2022-09-16T21:31:40.927Z,12.38
2022-09-16T21:34:12.799Z,12.67
2022-09-16T21:36:42.086Z,12.63
2022-09-16T21:39:10.739Z,12.64
2022-09-16T21:41:38.508Z,12.55
2022-09-16T21:44:06.887Z,12.32
2022-09-16T21:46:39.548Z,12.44
2022-09-16T21:49:07.748Z,12.45
2022-09-16T21:51:38.701Z,12.38
2022-09-16T21:54:09.190Z,12.39
2022-09-16T21:56:39.052Z,12.10
2022-09-16T21:59:07.328Z,12.07
2022-09-16T22:01:36.479Z,11.92
2022-09-16T22:04:05.998Z,12.16
2022-09-16T22:06:34.641Z,12.21
2022-09-16T22:09:03.680Z,12.11
2022-09-16T22:11:33.802Z,12.19
2022-09-16T22:14:01.887Z,12.31
2022-09-16T22:16:31.604Z,12.34
2022-09-16T22:19:01.688Z,12.49
2022-09-16T22:21:31.160Z,12.21
2022-09-16T22:23:59.714Z,12.27
2022-09-16T22:26:28.335Z,12.10
2022-09-16T22:28:57.721Z,11.89
2022-09-16T22:31:27.046Z,11.82
2022-09-16T22:33:56.435Z,11.62
2022-09-16T22:36:26.251Z,11.71
2022-09-16T22:38:55.529Z,11.94
2022-09-16T22:41:24.818Z,11.64
2022-09-16T22:43:54.087Z,11.96
2022-09-16T22:46:24.989Z,11.95
2022-09-16T22:48:53.534Z,12.11
2022-09-16T22:51:21.520Z,12.32
2022-09-16T22:53:50.243Z,12.43
2022-09-16T22:56:19.874Z,12.44
2022-09-16T22:58:51.874Z,12.63
2022-09-16T23:01:21.621Z,12.75
2022-09-16T23:03:54.371Z,12.67
2022-09-16T23:06:24.292Z,12.48
2022-09-16T23:08:52.953Z,12.51
2022-09-16T23:11:23.645Z,12.64
2022-09-16T23:13:52.767Z,12.66
2022-09-16T23:16:23.008Z,12.58
2022-09-16T23:18:52.195Z,12.65
2022-09-16T23:21:21.821Z,12.78
2022-09-16T23:23:51.713Z,13.07
2022-09-16T23:26:21.998Z,13.03
2022-09-16T23:28:53.146Z,13.11
2022-09-16T23:31:23.186Z,13.16
2022-09-16T23:33:52.517Z,13.07
2022-09-16T23:36:21.079Z,12.97
2022-09-16T23:38:49.143Z,13.29
2022-09-16T23:41:20.197Z,13.21
2022-09-16T23:43:49.154Z,13.42
2022-09-16T23:46:19.565Z,13.28
2022-09-16T23:48:47.947Z,13.66
2022-09-16T23:51:16.994Z,13.59
2022-09-16T23:53:45.049Z,13.94
2022-09-16T23:56:15.005Z,13.86
2022-09-16T23:58:43.345Z,13.98
